Time;durP1;ratioP1;P1;durP2;ratioP2;P2;SDS_P1;SDS_P2;PMS_P1;PMS_P2;Temp;Humidity;BMP_temperature;BMP_pressure;BME280_temperature;BME280_humidity;BME280_pressure;Samples;Min_cycle;Max_cycle;Signal;HPM_P1;HPM_P2
2023/10/13 00:01:54;;;;;;;3.10;1.90;;;;;;;16.02;42.63;99273.28;4963762;28;20087;-86
2023/10/13 00:04:24;;;;;;;4.72;1.92;;;;;;;16.05;42.65;99274.78;4996859;28;20045;-87
2023/10/13 00:06:53;;;;;;;4.93;1.77;;;;;;;16.01;42.75;99276.88;4980987;28;20048;-85
2023/10/13 00:09:24;;;;;;;3.10;1.77;;;;;;;15.99;42.74;99272.72;4980058;28;20065;-86
2023/10/13 00:11:52;;;;;;;3.72;2.15;;;;;;;16.00;42.68;99277.84;4980575;28;20108;-86
2023/10/13 00:14:18;;;;;;;4.68;1.85;;;;;;;15.97;42.80;99270.22;4979233;28;20482;-88
2023/10/13 00:19:37;;;;;;;3.45;1.73;;;;;;;15.92;43.00;99259.25;4983790;28;20464;-86
2023/10/13 00:22:08;;;;;;;5.97;2.00;;;;;;;15.94;43.02;99264.38;4981289;28;20121;-85
2023/10/13 00:25:26;;;;;;;4.25;1.75;;;;;;;15.91;42.99;99265.50;4980492;28;20042;-84
2023/10/13 00:27:29;;;;;;;4.05;1.83;;;;;;;15.86;43.17;99259.81;4987759;28;20076;-85
2023/10/13 00:32:55;;;;;;;4.97;1.85;;;;;;;15.82;43.46;99254.00;4997118;28;20036;-78
2023/10/13 00:35:36;;;;;;;4.95;1.90;;;;;;;15.77;43.50;99252.75;4980597;28;20466;-78
2023/10/13 00:38:16;;;;;;;7.07;2.03;;;;;;;15.77;43.60;99252.75;4983339;28;20139;-87
2023/10/13 00:40:52;;;;;;;5.57;1.80;;;;;;;15.64;43.51;99238.03;4983312;28;20030;-89
2023/10/13 00:45:57;;;;;;;4.57;1.65;;;;;;;15.74;43.90;99259.09;4980829;28;20117;-90
2023/10/13 00:48:45;;;;;;;4.13;2.10;;;;;;;15.71;43.80;99252.28;4995469;28;20036;-91
2023/10/13 00:51:34;;;;;;;4.53;1.80;;;;;;;15.66;44.03;99232.63;4981996;28;20026;-90
2023/10/13 00:53:59;;;;;;;4.22;1.70;;;;;;;15.66;44.12;99246.63;4984651;28;20118;-89
2023/10/13 00:56:28;;;;;;;4.47;1.70;;;;;;;15.67;44.13;99250.91;4979538;28;20042;-89
2023/10/13 00:58:57;;;;;;;3.58;2.03;;;;;;;15.65;43.93;99237.03;4980045;28;20042;-87
2023/10/13 01:01:29;;;;;;;4.97;1.80;;;;;;;15.63;44.46;99239.00;4979782;28;20034;-90
2023/10/13 01:04:08;;;;;;;5.25;1.88;;;;;;;15.60;44.22;99233.19;4980106;28;20045;-88
2023/10/13 01:06:34;;;;;;;3.03;1.73;;;;;;;15.57;44.48;99229.00;4982224;28;20050;-86
2023/10/13 01:09:17;;;;;;;6.25;1.90;;;;;;;15.55;44.29;99237.03;4995575;28;20069;-88
2023/10/13 01:11:44;;;;;;;5.72;2.08;;;;;;;15.51;44.60;99219.88;4982593;28;20425;-92
2023/10/13 01:14:17;;;;;;;6.00;2.13;;;;;;;15.52;44.71;99228.59;4982135;28;20063;-92
2023/10/13 01:16:44;;;;;;;9.48;2.70;;;;;;;15.48;44.94;99224.56;4997564;28;20025;-84
2023/10/13 01:19:12;;;;;;;3.95;1.88;;;;;;;15.47;44.86;99221.13;4980716;28;20034;-84
2023/10/13 01:21:40;;;;;;;4.57;1.95;;;;;;;15.44;44.96;99213.50;4981120;28;20390;-83
2023/10/13 01:24:07;;;;;;;;;;;;;;;15.47;44.93;99223.75;4982947;28;20037;-83
2023/10/13 01:26:38;;;;;;;3.67;2.05;;;;;;;15.42;45.20;99220.69;5000236;28;19932;-82
2023/10/13 01:29:11;;;;;;;3.92;1.98;;;;;;;15.36;45.16;99211.53;4984805;28;20026;-81
2023/10/13 01:31:37;;;;;;;4.20;1.83;;;;;;;15.36;45.24;99208.09;4985178;28;20141;-82
2023/10/13 01:34:03;;;;;;;5.97;1.83;;;;;;;15.36;45.33;99208.91;4998964;28;20057;-83
2023/10/13 01:36:28;;;;;;;5.78;1.98;;;;;;;15.31;45.38;99205.88;4981296;28;20805;-82
2023/10/13 01:38:54;;;;;;;3.63;1.85;;;;;;;15.36;45.56;99216.81;4997636;28;20452;-83
2023/10/13 01:41:22;;;;;;;2.90;1.80;;;;;;;15.35;45.72;99222.19;4981962;28;20145;-82
2023/10/13 01:43:48;;;;;;;;;;;;;;;15.35;45.70;99215.16;4981841;28;20032;-83
2023/10/13 01:46:15;;;;;;;3.53;1.80;;;;;;;15.31;45.82;99218.19;4981636;28;19913;-84
2023/10/13 01:48:43;;;;;;;4.32;2.10;;;;;;;15.28;45.95;99218.47;4981447;28;20029;-83
2023/10/13 01:51:13;;;;;;;4.18;1.85;;;;;;;15.26;45.79;99210.69;4982406;28;20029;-84
2023/10/13 01:53:39;;;;;;;10.48;2.10;;;;;;;15.27;45.93;99208.91;4985574;28;20034;-83
2023/10/13 01:56:10;;;;;;;4.97;2.22;;;;;;;15.26;45.66;99210.69;4999530;28;20424;-82
2023/10/13 01:58:42;;;;;;;7.75;2.08;;;;;;;15.20;45.98;99203.34;4984852;28;20057;-83
2023/10/13 02:01:13;;;;;;;3.55;1.92;;;;;;;15.18;46.09;99198.22;5000937;28;20021;-84
2023/10/13 02:03:46;;;;;;;4.90;2.30;;;;;;;15.18;46.05;99200.84;5000396;28;20128;-82
2023/10/13 02:06:17;;;;;;;3.20;1.80;;;;;;;15.23;46.11;99205.72;4986201;28;20057;-82
2023/10/13 02:08:43;;;;;;;4.00;2.00;;;;;;;15.24;46.28;99211.78;5000204;28;20041;-82
2023/10/13 02:11:09;;;;;;;3.00;2.00;;;;;;;15.24;46.24;99204.72;5000190;28;20029;-81
2023/10/13 02:13:41;;;;;;;2.85;2.00;;;;;;;15.20;46.13;99200.72;5000530;28;20484;-81
2023/10/13 02:16:07;;;;;;;3.83;2.00;;;;;;;15.23;46.18;99208.34;5018109;28;20033;-81
2023/10/13 02:18:41;;;;;;;3.58;1.83;;;;;;;15.20;46.13;99203.34;5000475;28;20030;-83
2023/10/13 02:21:16;;;;;;;5.43;2.15;;;;;;;15.20;46.05;99208.59;4986433;28;20033;-81
2023/10/13 02:23:45;;;;;;;4.22;1.73;;;;;;;15.19;46.25;99201.69;5000024;28;20191;-82
2023/10/13 02:26:15;;;;;;;5.68;2.33;;;;;;;15.18;46.16;99202.63;5000615;28;20055;-81
2023/10/13 02:28:41;;;;;;;5.53;2.42;;;;;;;15.14;46.08;99190.75;5000268;28;20814;-81
2023/10/13 02:31:07;;;;;;;5.28;2.30;;;;;;;15.18;46.08;99198.22;4983984;28;20033;-83
2023/10/13 02:33:33;;;;;;;3.97;2.08;;;;;;;15.13;46.14;99189.06;5015304;28;20110;-83
2023/10/13 02:36:05;;;;;;;3.83;2.22;;;;;;;15.15;46.15;99195.88;4999113;28;20124;-83
2023/10/13 02:41:18;;;;;;;3.30;2.03;;;;;;;15.15;46.28;99192.41;5002498;28;20108;-83
2023/10/13 02:43:44;;;;;;;4.80;1.67;;;;;;;15.12;46.49;99192.69;5000787;28;20516;-83
2023/10/13 02:46:09;;;;;;;4.10;2.35;;;;;;;15.07;46.43;99177.31;4999235;28;20045;-82
2023/10/13 02:48:41;;;;;;;4.03;1.98;;;;;;;15.12;46.64;99184.78;4999604;28;20037;-82
2023/10/13 02:51:16;;;;;;;4.78;1.98;;;;;;;15.08;46.25;99176.31;4999802;28;20045;-82
2023/10/13 02:53:53;;;;;;;3.03;1.85;;;;;;;15.10;46.42;99184.06;4985878;28;20053;-83
2023/10/13 02:56:22;;;;;;;2.97;1.80;;;;;;;15.09;46.68;99185.06;5002373;28;20167;-83
2023/10/13 02:58:56;;;;;;;4.53;1.88;;;;;;;15.10;46.76;99186.72;4983911;28;20076;-82
2023/10/13 03:01:26;;;;;;;3.63;2.00;;;;;;;15.07;46.52;99190.47;4984647;28;20415;-82
2023/10/13 03:03:54;;;;;;;3.95;2.17;;;;;;;15.06;46.68;99188.78;5016838;28;20027;-82
2023/10/13 03:06:40;;;;;;;4.28;2.00;;;;;;;15.02;46.63;99182.97;4983814;28;20021;-81
2023/10/13 03:09:17;;;;;;;3.30;2.05;;;;;;;15.05;47.12;99195.00;5015470;28;20466;-82
2023/10/13 03:11:47;;;;;;;4.90;2.17;;;;;;;15.06;47.16;99187.97;4985485;28;20555;-84
2023/10/13 03:14:23;;;;;;;3.13;1.80;;;;;;;15.04;47.05;99190.72;5016367;28;20055;-84
2023/10/13 03:16:54;;;;;;;4.90;2.13;;;;;;;15.04;47.33;99179.34;5017607;28;20076;-84
2023/10/13 03:19:20;;;;;;;3.38;1.92;;;;;;;14.99;47.32;99180.59;4983157;28;20026;-81
2023/10/13 03:21:54;;;;;;;4.40;1.90;;;;;;;15.03;47.41;99186.41;4998697;28;20029;-81
2023/10/13 03:24:33;;;;;;;5.90;1.98;;;;;;;15.00;47.38;99179.63;4998621;28;20083;-85
2023/10/13 03:26:59;;;;;;;;;;;;;;;15.04;47.41;99190.72;4969642;28;20026;-79
2023/10/13 03:29:30;;;;;;;5.18;1.95;;;;;;;14.98;47.60;99183.38;4992184;28;19940;-86
2023/10/13 03:32:06;;;;;;;7.82;2.03;;;;;;;14.97;47.70;99181.69;4963425;28;20057;-81
2023/10/13 03:34:31;;;;;;;4.18;1.80;;;;;;;15.01;47.48;99189.19;4963435;28;20113;-76
2023/10/13 03:36:57;;;;;;;6.45;1.98;;;;;;;14.97;47.81;99179.06;4942678;28;20482;-75
2023/10/13 03:39:31;;;;;;;3.08;1.83;;;;;;;15.00;47.67;99177.00;4975005;28;20030;-75
2023/10/13 03:41:57;;;;;;;5.18;1.95;;;;;;;15.00;47.93;99184.06;4944966;28;20112;-74
2023/10/13 03:44:46;;;;;;;4.38;1.90;;;;;;;14.99;47.67;99172.72;4918485;29;20046;-75
2023/10/13 03:47:18;;;;;;;4.72;1.45;;;;;;;15.27;53.51;99170.25;4901272;29;20046;-79
2023/10/13 03:49:51;;;;;;;7.90;1.50;;;;;;;15.51;52.98;99164.63;4932162;29;20043;-77
2023/10/13 03:52:22;;;;;;;3.95;1.80;;;;;;;15.55;50.68;99175.69;4917150;29;20043;-79
2023/10/13 03:54:48;;;;;;;8.15;2.22;;;;;;;15.51;49.73;99183.03;4916837;29;20034;-76
2023/10/13 03:57:13;;;;;;;4.90;2.00;;;;;;;15.44;49.41;99189.00;4900391;29;20055;-77
2023/10/13 03:59:39;;;;;;;6.43;1.63;;;;;;;15.37;49.20;99188.72;4900172;29;20500;-78
2023/10/13 04:02:11;;;;;;;3.80;2.00;;;;;;;15.32;48.91;99178.59;4901100;29;20057;-79
2023/10/13 04:04:55;;;;;;;3.92;1.70;;;;;;;15.28;48.90;99179.00;4902697;29;20032;-81
2023/10/13 04:07:39;;;;;;;3.50;1.60;;;;;;;15.22;48.75;99184.81;4905769;29;20574;-81
2023/10/13 04:22:14;;;;;;;8.90;2.03;;;;;;;15.36;50.95;99192.31;4924159;28;20046;-82
2023/10/13 04:24:09;;;;;;;7.20;1.90;;;;;;;15.31;50.21;99189.25;4967943;28;20066;-84
2023/10/13 04:26:59;;;;;;;5.65;2.35;;;;;;;15.22;49.83;99188.25;4964771;28;20054;-85
2023/10/13 04:32:13;;;;;;;5.25;1.80;;;;;;;15.18;49.25;99197.38;4970677;28;20099;-87
2023/10/13 04:34:39;;;;;;;6.68;2.25;;;;;;;15.32;48.80;99197.00;4967340;28;20038;-86
2023/10/13 04:39:57;;;;;;;5.57;1.92;;;;;;;15.67;47.89;99211.44;4970055;28;20070;-88
2023/10/13 04:42:39;;;;;;;5.30;2.20;;;;;;;15.90;47.17;99216.44;4966716;28;20023;-87
2023/10/13 04:45:53;;;;;;;9.40;2.13;;;;;;;16.22;46.46;99215.31;4967154;28;20031;-88
2023/10/13 04:50:58;;;;;;;4.90;2.05;;;;;;;16.99;44.60;99216.88;5001801;28;20038;-87
2023/10/13 04:59:35;;;;;;;5.15;2.10;;;;;;;18.20;41.99;99216.56;4926821;29;20624;-87
2023/10/13 06:30:33;;;;;;;17.10;4.28;;;;;;;29.91;22.13;99259.69;4892610;29;20082;-88
2023/10/13 06:33:04;;;;;;;22.83;3.90;;;;;;;30.08;22.11;99257.16;4908905;28;20103;-89
2023/10/13 06:35:50;;;;;;;12.13;3.78;;;;;;;30.23;21.91;99268.25;4977381;28;20035;-92
2023/10/13 06:38:20;;;;;;;15.83;4.30;;;;;;;30.40;21.62;99264.91;4967755;28;20065;-90
2023/10/13 06:40:53;;;;;;;17.02;4.63;;;;;;;30.54;21.83;99263.63;4971767;28;20030;-90
2023/10/13 06:43:59;;;;;;;19.83;5.22;;;;;;;30.69;21.43;99263.13;4970177;28;20125;-89
2023/10/13 06:46:34;;;;;;;20.95;5.50;;;;;;;30.81;21.38;99261.25;4973841;28;20458;-89
2023/10/13 06:49:03;;;;;;;25.58;4.88;;;;;;;30.93;21.17;99261.22;4986227;28;20102;-89
2023/10/13 06:51:37;;;;;;;18.95;5.32;;;;;;;31.06;20.96;99268.25;4967795;28;20478;-90
2023/10/13 06:54:12;;;;;;;15.23;5.07;;;;;;;31.19;20.29;99270.66;4937868;28;20042;-89
2023/10/13 06:56:41;;;;;;;22.17;5.13;;;;;;;31.29;20.72;99271.94;4952046;28;20073;-88
2023/10/13 06:59:26;;;;;;;22.48;4.70;;;;;;;31.47;20.65;99257.44;4929835;29;20524;-89
2023/10/13 07:01:52;;;;;;;24.00;4.88;;;;;;;31.62;20.00;99259.63;4946147;29;20043;-91
2023/10/13 07:04:18;;;;;;;18.48;4.80;;;;;;;31.79;20.34;99262.38;4930850;29;20043;-89
2023/10/13 07:06:51;;;;;;;27.85;4.88;;;;;;;31.95;20.02;99261.56;4947728;29;20031;-90
2023/10/13 07:12:16;;;;;;;17.00;4.18;;;;;;;32.05;19.89;99264.41;4962853;29;20109;-89
2023/10/13 07:14:51;;;;;;;17.15;3.60;;;;;;;32.42;19.54;99276.63;4951422;29;20098;-89
2023/10/13 07:17:32;;;;;;;23.92;3.97;;;;;;;32.60;19.50;99281.75;4936330;29;20131;-90
2023/10/13 07:20:24;;;;;;;14.65;3.70;;;;;;;32.81;19.34;99285.59;4938071;29;20043;-89
2023/10/13 07:23:02;;;;;;;15.27;3.97;;;;;;;32.87;19.18;99275.66;4964617;29;20085;-90
2023/10/13 07:25:37;;;;;;;21.55;3.85;;;;;;;33.05;19.10;99268.28;4949544;29;20043;-91
2023/10/13 07:28:21;;;;;;;17.55;3.58;;;;;;;33.22;19.01;99270.97;4947472;29;20039;-91
2023/10/13 07:33:19;;;;;;;22.67;3.58;;;;;;;33.48;18.68;99272.09;4974727;28;20042;-90
2023/10/13 07:36:15;;;;;;;17.08;3.13;;;;;;;33.46;18.56;99276.91;4957725;28;20042;-89
2023/10/13 07:39:09;;;;;;;13.85;3.47;;;;;;;33.51;19.07;99274.25;5000793;28;20068;-88
2023/10/13 07:41:36;;;;;;;16.33;3.28;;;;;;;33.71;18.19;99274.47;4973508;28;20046;-88
2023/10/13 07:44:04;;;;;;;10.45;2.90;;;;;;;33.75;18.32;99279.38;4984454;28;20094;-89
2023/10/13 07:46:35;;;;;;;16.33;2.92;;;;;;;33.89;17.86;99284.13;4979444;28;20038;-91
2023/10/13 07:49:11;;;;;;;17.45;2.90;;;;;;;33.98;18.04;99279.03;4958635;28;20034;-90
2023/10/13 07:51:56;;;;;;;13.85;3.00;;;;;;;34.16;18.01;99285.97;4979672;28;20033;-91
2023/10/13 07:54:35;;;;;;;16.02;3.08;;;;;;;34.37;17.61;99284.25;5008140;28;20514;-89
2023/10/13 07:57:07;;;;;;;13.65;2.92;;;;;;;34.45;18.04;99282.16;4984895;28;20433;-88
2023/10/13 07:59:47;;;;;;;20.10;3.65;;;;;;;34.62;17.83;99282.78;4957915;28;20069;-89
2023/10/13 08:02:48;;;;;;;11.57;2.85;;;;;;;34.71;17.14;99281.22;4980572;28;20045;-90
2023/10/13 08:05:39;;;;;;;29.52;3.42;;;;;;;34.83;17.37;99275.59;4976386;28;20098;-90
2023/10/13 08:08:14;;;;;;;22.00;3.42;;;;;;;34.77;17.66;99272.03;4980636;28;20066;-87
2023/10/13 08:10:48;;;;;;;18.73;3.08;;;;;;;34.93;17.27;99266.69;4978305;28;20032;-90
2023/10/13 08:13:23;;;;;;;20.05;3.47;;;;;;;35.06;17.19;99276.22;4976623;28;20052;-90
2023/10/13 08:15:53;;;;;;;17.63;3.30;;;;;;;35.11;17.36;99265.44;4988512;28;20081;-90
2023/10/13 08:18:32;;;;;;;31.17;3.80;;;;;;;35.25;17.27;99272.00;4992316;28;20030;-93
2023/10/13 08:21:19;;;;;;;15.02;3.10;;;;;;;35.44;17.13;99280.47;4979406;28;20081;-91
2023/10/13 08:34:39;;;;;;;18.60;3.95;;;;;;;35.97;16.50;99247.69;4992543;28;20030;-89
2023/10/13 08:43:08;;;;;;;25.95;4.85;;;;;;;36.79;15.87;99256.81;4993073;28;20139;-88
2023/10/13 08:48:18;;;;;;;19.13;5.20;;;;;;;36.93;15.49;99264.09;5001140;28;20065;-91
2023/10/13 08:51:12;;;;;;;20.60;5.05;;;;;;;36.81;15.53;99258.16;4999570;28;20030;-90
2023/10/13 08:53:51;;;;;;;17.75;4.82;;;;;;;36.72;15.44;99257.06;4999846;28;20034;-89
2023/10/13 08:56:34;;;;;;;32.47;5.73;;;;;;;36.52;15.77;99256.06;4982764;28;20030;-90
2023/10/13 09:04:47;;;;;;;20.85;5.10;;;;;;;36.34;16.21;99253.91;4995129;28;20468;-88
2023/10/13 09:07:15;;;;;;;17.48;5.10;;;;;;;36.19;15.65;99244.66;4971764;28;20251;-91
2023/10/13 09:15:06;;;;;;;22.15;4.65;;;;;;;36.27;16.12;99251.47;4977172;28;20039;-90
2023/10/13 09:18:12;;;;;;;21.13;4.80;;;;;;;36.15;15.97;99254.47;4989581;28;20056;-89
2023/10/13 09:23:25;;;;;;;13.13;4.15;;;;;;;36.07;15.89;99248.75;4966235;28;20041;-92
2023/10/13 09:25:58;;;;;;;21.35;4.70;;;;;;;35.92;15.94;99236.81;4959376;28;20089;-90
2023/10/13 09:28:31;;;;;;;16.80;4.28;;;;;;;35.83;16.21;99246.59;4956383;28;20046;-89
2023/10/13 09:30:58;;;;;;;20.38;4.95;;;;;;;35.78;16.20;99236.53;4960979;28;20070;-92
2023/10/13 09:33:35;;;;;;;;;;;;;;;35.77;16.45;99242.25;4944483;28;20043;-91
2023/10/13 09:36:06;;;;;;;23.67;4.43;;;;;;;35.56;16.66;99242.19;4973352;28;19917;-90
2023/10/13 09:38:36;;;;;;;19.08;5.00;;;;;;;35.46;16.57;99232.16;4941706;28;20039;-89
2023/10/13 09:41:25;;;;;;;14.30;4.82;;;;;;;35.39;16.71;99234.28;4970312;28;20047;-92
2023/10/13 09:43:57;;;;;;;21.98;5.25;;;;;;;35.18;16.96;99238.84;4977119;28;20043;-92
2023/10/13 09:46:28;;;;;;;15.07;4.95;;;;;;;34.86;17.27;99236.31;4974207;28;20023;-89
2023/10/13 09:49:08;;;;;;;24.08;4.72;;;;;;;34.16;17.88;99225.53;4955648;28;20034;-88
2023/10/13 09:51:35;;;;;;;30.67;5.60;;;;;;;33.36;18.66;99231.63;4935692;28;20107;-89
2023/10/13 09:54:06;;;;;;;17.90;5.38;;;;;;;32.92;19.01;99234.34;4969453;28;20046;-89
2023/10/13 09:56:51;;;;;;;24.60;5.78;;;;;;;32.74;19.10;99233.59;5002589;28;20034;-90
2023/10/13 09:59:42;;;;;;;15.95;5.50;;;;;;;32.93;19.07;99231.41;4969980;28;20050;-89
2023/10/13 10:02:25;;;;;;;29.10;5.45;;;;;;;32.93;19.23;99233.28;4991067;28;20429;-86
2023/10/13 10:05:21;;;;;;;11.40;2.70;;;;;;;32.93;22.79;99223.28;4948541;28;20578;-80
2023/10/13 10:08:01;;;;;;;9.98;3.47;;;;;;;32.87;21.66;99205.38;4985816;28;20037;-89
2023/10/13 10:11:00;;;;;;;11.43;4.53;;;;;;;32.81;21.06;99209.06;4967791;28;20445;-87
2023/10/13 10:13:58;;;;;;;18.48;4.22;;;;;;;33.00;20.36;99204.16;4968320;28;20039;-89
2023/10/13 10:16:41;;;;;;;21.65;4.93;;;;;;;33.03;20.12;99200.13;4942571;29;20157;-87
2023/10/13 10:19:10;;;;;;;16.60;4.45;;;;;;;32.96;20.40;99200.34;4942486;29;20192;-87
2023/10/13 10:21:45;;;;;;;22.58;4.60;;;;;;;32.99;19.54;99197.13;4958774;29;20050;-88
2023/10/13 10:24:29;;;;;;;24.45;5.10;;;;;;;32.87;19.91;99191.03;4927361;29;20050;-87
2023/10/13 10:27:14;;;;;;;19.17;4.90;;;;;;;32.78;19.72;99191.50;4943108;29;20100;-87
2023/10/13 10:29:56;;;;;;;12.40;4.45;;;;;;;32.89;19.89;99188.91;4956376;29;20040;-86
2023/10/13 10:32:48;;;;;;;23.15;4.50;;;;;;;32.85;19.71;99180.47;4923443;29;20055;-87
2023/10/13 10:35:20;;;;;;;13.07;4.82;;;;;;;32.56;19.58;99185.22;4962756;29;20569;-86
2023/10/13 10:37:48;;;;;;;18.92;4.55;;;;;;;32.59;19.88;99182.84;4941555;29;20090;-86
2023/10/13 10:43:08;;;;;;;21.50;5.13;;;;;;;32.44;19.91;99186.16;4943248;29;20082;-88
2023/10/13 10:45:36;;;;;;;21.98;5.05;;;;;;;32.41;19.78;99178.53;4928721;29;20178;-88
2023/10/13 10:48:20;;;;;;;13.30;4.63;;;;;;;32.31;19.85;99173.03;4966301;28;20085;-87
2023/10/13 10:50:54;;;;;;;20.90;4.80;;;;;;;32.19;20.09;99164.19;4949044;28;20140;-87
2023/10/13 10:53:33;;;;;;;11.23;4.45;;;;;;;32.11;20.20;99173.53;4954067;28;20046;-87
2023/10/13 10:56:19;;;;;;;12.45;4.47;;;;;;;32.14;20.29;99161.44;4975329;28;20033;-86
2023/10/13 10:58:55;;;;;;;13.50;4.38;;;;;;;31.98;20.41;99165.78;4973226;28;20038;-86
2023/10/13 11:01:50;;;;;;;21.13;4.05;;;;;;;31.66;20.38;99166.31;4973470;28;20485;-87
2023/10/13 11:04:33;;;;;;;15.40;4.38;;;;;;;31.34;20.77;99166.84;4973691;28;20047;-87
2023/10/13 11:07:00;;;;;;;16.80;4.07;;;;;;;31.18;21.10;99161.16;4968739;28;20516;-88
2023/10/13 11:09:31;;;;;;;12.65;4.00;;;;;;;31.23;20.78;99160.44;4980100;28;20038;-88
2023/10/13 11:12:28;;;;;;;13.38;3.90;;;;;;;30.98;21.25;99158.09;4967955;28;20065;-87
2023/10/13 11:15:22;;;;;;;16.30;4.43;;;;;;;30.93;21.37;99150.72;4997630;28;20030;-87
2023/10/13 11:17:56;;;;;;;11.60;3.90;;;;;;;30.76;21.23;99137.19;4954424;28;20038;-87
2023/10/13 11:20:43;;;;;;;11.48;3.55;;;;;;;30.73;21.32;99139.56;4966896;28;20034;-88
2023/10/13 11:23:17;;;;;;;14.20;4.20;;;;;;;30.55;21.50;99143.22;4968825;28;20038;-88
2023/10/13 11:25:55;;;;;;;15.10;4.10;;;;;;;30.48;21.78;99136.09;4964979;28;20047;-91
2023/10/13 11:28:34;;;;;;;11.15;3.90;;;;;;;30.43;22.03;99130.59;4965518;28;20022;-89
2023/10/13 11:31:19;;;;;;;12.32;3.92;;;;;;;30.29;22.24;99140.78;4998980;28;20095;-86
2023/10/13 11:33:46;;;;;;;16.52;3.78;;;;;;;30.12;22.66;99135.28;4981303;28;20140;-87
2023/10/13 11:36:29;;;;;;;8.52;3.60;;;;;;;29.96;22.38;99133.31;4982913;28;20027;-88
2023/10/13 11:38:57;;;;;;;13.27;3.70;;;;;;;29.86;22.78;99131.22;4996660;28;20046;-88
2023/10/13 11:41:33;;;;;;;10.65;3.78;;;;;;;29.79;22.56;99125.09;4964641;28;20084;-88
2023/10/13 11:44:23;;;;;;;6.85;3.75;;;;;;;29.74;22.86;99124.97;4984775;28;20041;-87
2023/10/13 11:49:46;;;;;;;14.93;3.42;;;;;;;29.68;23.21;99132.13;4986507;28;20103;-88
2023/10/13 11:52:40;;;;;;;11.32;3.80;;;;;;;29.62;23.22;99132.19;4969769;28;20457;-87
2023/10/13 11:55:06;;;;;;;16.73;3.50;;;;;;;29.56;23.61;99133.97;5001017;28;20069;-88
2023/10/13 11:57:40;;;;;;;7.20;3.13;;;;;;;29.50;23.82;99127.63;4966037;28;20085;-87
2023/10/13 12:01:01;;;;;;;9.40;3.33;;;;;;;29.48;23.79;99123.56;5003077;28;20050;-89
2023/10/13 12:11:42;;;;;;;7.90;2.85;;;;;;;29.16;23.93;99116.53;4980079;28;20402;-88
2023/10/13 12:14:52;;;;;;;16.45;3.47;;;;;;;29.15;23.91;99125.66;4949602;28;20429;-87
2023/10/13 12:17:10;;;;;;;10.10;3.33;;;;;;;29.10;24.07;99122.84;4970159;28;20553;-88
2023/10/13 12:19:39;;;;;;;8.15;2.95;;;;;;;29.00;23.96;99123.38;4965188;28;20031;-89
2023/10/13 12:22:16;;;;;;;9.55;3.33;;;;;;;29.00;24.21;99130.59;4981190;28;20476;-89
2023/10/13 12:24:53;;;;;;;12.35;3.00;;;;;;;28.99;24.18;99129.81;4964856;28;20034;-88
2023/10/13 12:27:35;;;;;;;10.40;3.25;;;;;;;29.01;24.10;99129.56;4978095;28;20506;-87
2023/10/13 12:30:08;;;;;;;15.68;2.90;;;;;;;29.05;23.98;99118.13;4952132;28;20031;-89
2023/10/13 12:32:58;;;;;;;10.43;3.35;;;;;;;29.11;24.02;99131.69;4982526;28;20045;-89
2023/10/13 12:35:35;;;;;;;13.30;3.03;;;;;;;29.13;23.85;99119.69;4983680;28;20046;-86
2023/10/13 12:38:37;;;;;;;9.02;3.22;;;;;;;29.00;23.94;99114.47;4981419;28;20481;-87
2023/10/13 12:52:31;;;;;;;14.30;2.53;;;;;;;28.60;24.22;99121.19;4967232;28;20037;-87
2023/10/13 12:55:06;;;;;;;8.70;2.47;;;;;;;28.58;24.13;99111.75;4967747;28;20034;-88
2023/10/13 12:57:32;;;;;;;7.68;2.50;;;;;;;28.52;24.31;99116.13;4964822;28;20030;-89
2023/10/13 12:59:59;;;;;;;8.73;2.58;;;;;;;28.52;23.86;99114.25;4945412;28;20049;-87
2023/10/13 13:02:27;;;;;;;12.82;2.83;;;;;;;28.49;24.29;99114.69;4978568;28;20508;-87
2023/10/13 13:05:13;;;;;;;7.93;2.78;;;;;;;28.45;24.23;99116.19;4962862;28;20052;-87
2023/10/13 13:07:52;;;;;;;5.47;2.70;;;;;;;28.39;24.23;99109.03;4964446;28;20603;-86
2023/10/13 13:10:18;;;;;;;14.27;2.58;;;;;;;28.36;24.48;99111.38;4964409;28;20149;-87
2023/10/13 13:12:44;;;;;;;14.13;3.00;;;;;;;28.31;24.68;99107.47;4945491;28;20077;-88
2023/10/13 13:15:12;;;;;;;6.18;2.38;;;;;;;28.30;24.62;99105.00;4946872;28;20042;-87
2023/10/13 13:17:39;;;;;;;;;;;;;;;28.33;24.70;99108.06;4965424;28;20085;-91
2023/10/13 13:20:52;;;;;;;9.20;2.38;;;;;;;28.25;24.71;99094.94;4985823;28;19921;-90
2023/10/13 13:23:05;;;;;;;8.87;2.73;;;;;;;28.22;24.74;99111.50;4982576;28;20035;-86
2023/10/13 13:25:31;;;;;;;11.20;2.70;;;;;;;28.17;24.87;99108.66;4984161;28;20034;-87
2023/10/13 13:28:04;;;;;;;6.97;2.47;;;;;;;28.18;24.76;99114.84;4968255;28;20034;-89
2023/10/13 13:30:34;;;;;;;10.02;2.58;;;;;;;28.09;25.06;99104.41;4970599;28;20037;-86
2023/10/13 13:33:10;;;;;;;5.18;2.42;;;;;;;28.13;25.01;99108.28;4968342;28;20485;-88
2023/10/13 13:35:42;;;;;;;11.00;2.80;;;;;;;28.14;24.83;99103.75;4967059;28;20072;-87
2023/10/13 13:38:13;;;;;;;7.43;2.58;;;;;;;28.15;25.18;99111.56;4949810;28;20046;-87
2023/10/13 13:40:41;;;;;;;12.00;2.72;;;;;;;28.00;25.10;99111.09;4981467;28;20023;-89
2023/10/13 13:43:17;;;;;;;11.13;2.22;;;;;;;27.94;25.13;99118.19;4998398;28;20022;-86
2023/10/13 13:45:46;;;;;;;7.07;2.60;;;;;;;27.88;24.94;99102.09;4966764;28;20038;-87
2023/10/13 13:48:15;;;;;;;5.93;2.40;;;;;;;27.93;24.81;99111.13;4952310;28;20100;-88
2023/10/13 13:50:52;;;;;;;9.48;2.38;;;;;;;27.82;24.78;99098.47;4951221;28;20046;-89
2023/10/13 13:53:27;;;;;;;15.43;2.70;;;;;;;27.80;25.02;99103.22;4983611;28;20034;-90
2023/10/13 13:55:59;;;;;;;22.08;2.78;;;;;;;27.74;24.98;99101.44;4984051;28;20505;-88
2023/10/13 13:58:26;;;;;;;7.15;2.55;;;;;;;27.66;24.90;99101.69;4982262;28;20052;-87
2023/10/13 14:01:14;;;;;;;10.40;2.55;;;;;;;27.67;25.25;99106.81;4949826;28;20072;-86
2023/10/13 14:03:50;;;;;;;10.60;2.53;;;;;;;27.67;25.31;99106.00;4981793;28;20050;-90
2023/10/13 14:06:28;;;;;;;11.00;3.00;;;;;;;27.59;25.41;99102.56;4998991;28;20022;-89
2023/10/13 14:08:56;;;;;;;9.57;2.72;;;;;;;27.54;25.60;99107.75;4950411;28;20413;-86
2023/10/13 14:14:20;;;;;;;15.77;2.78;;;;;;;27.41;25.86;99106.00;4982323;28;20031;-87
2023/10/13 14:16:47;;;;;;;7.53;2.78;;;;;;;27.33;26.05;99106.28;4946589;28;20133;-77
2023/10/13 14:19:19;;;;;;;7.30;2.50;;;;;;;27.33;26.08;99105.47;4960506;28;20030;-79
2023/10/13 14:21:50;;;;;;;6.38;2.60;;;;;;;27.32;26.42;99106.50;4962645;28;20402;-79
2023/10/13 14:25:09;;;;;;;10.77;2.72;;;;;;;27.23;26.34;99106.75;4962742;28;20053;-77
2023/10/13 14:27:17;;;;;;;11.65;2.97;;;;;;;27.24;26.60;99107.53;4969506;28;20046;-70
2023/10/13 14:29:43;;;;;;;18.73;2.63;;;;;;;27.15;28.25;99108.84;4946518;28;20034;-71
2023/10/13 14:32:27;;;;;;;13.18;2.92;;;;;;;27.02;27.57;99105.19;4959563;28;20034;-72
2023/10/13 14:34:56;;;;;;;12.38;2.50;;;;;;;26.85;27.63;99102.22;4965317;28;20109;-73
2023/10/13 14:37:30;;;;;;;15.80;2.90;;;;;;;26.73;26.91;99095.91;4976578;28;20050;-72
2023/10/13 14:39:59;;;;;;;15.85;2.65;;;;;;;26.69;28.71;99105.38;4963112;28;20038;-76
2023/10/13 14:42:26;;;;;;;19.75;2.88;;;;;;;26.61;29.14;99106.41;4962051;28;21943;-76
2023/10/13 14:44:55;;;;;;;9.10;3.05;;;;;;;26.51;28.84;99101.50;4977415;28;20033;-76
2023/10/13 14:47:27;;;;;;;12.70;2.78;;;;;;;26.39;29.07;99094.34;4993130;28;20060;-74
2023/10/13 14:50:01;;;;;;;13.38;2.80;;;;;;;26.34;29.59;99109.19;4978447;28;20507;-76
2023/10/13 14:52:27;;;;;;;16.48;2.65;;;;;;;26.25;29.58;99105.13;4987000;28;20031;-73
2023/10/13 14:54:55;;;;;;;26.35;3.30;;;;;;;26.13;29.15;99096.91;4961949;28;20121;-71
2023/10/13 14:57:24;;;;;;;23.50;3.20;;;;;;;25.98;29.23;99098.97;5012763;28;20557;-73
2023/10/13 14:59:51;;;;;;;32.55;3.15;;;;;;;25.95;29.57;99110.06;5016076;28;20163;-72
2023/10/13 15:02:16;;;;;;;15.65;2.92;;;;;;;25.85;29.91;99110.50;4982647;28;20050;-74
2023/10/13 15:04:42;;;;;;;21.48;3.30;;;;;;;25.82;29.88;99117.09;4981816;28;20069;-72
2023/10/13 15:07:08;;;;;;;28.75;3.20;;;;;;;25.67;30.10;99108.44;4981808;28;20511;-72
2023/10/13 15:09:34;;;;;;;15.95;2.65;;;;;;;25.60;30.17;99113.81;4982939;28;20108;-73
2023/10/13 15:11:59;;;;;;;20.00;2.83;;;;;;;25.52;30.48;99115.84;4998161;28;20465;-73
2023/10/13 15:14:25;;;;;;;19.15;2.85;;;;;;;25.47;30.59;99113.78;4998775;28;20042;-72
2023/10/13 15:16:52;;;;;;;21.35;3.15;;;;;;;25.42;30.75;99110.91;4998217;28;20038;-73